sensor_id;sensor_type;location;lat;lon;timestamp;temperature;humidity
5164;DHT22;2601;50.224;10.126;2023-10-31T00:01:29;18.50;96.30
5164;DHT22;2601;50.224;10.126;2023-10-31T00:03:54;18.50;96.30
5164;DHT22;2601;50.224;10.126;2023-10-31T00:06:20;18.50;96.30
5164;DHT22;2601;50.224;10.126;2023-10-31T00:08:45;18.50;96.30
5164;DHT22;2601;50.224;10.126;2023-10-31T00:11:11;18.50;96.30
5164;DHT22;2601;50.224;10.126;2023-10-31T00:13:37;18.50;96.30
5164;DHT22;2601;50.224;10.126;2023-10-31T00:16:03;18.50;96.30
5164;DHT22;2601;50.224;10.126;2023-10-31T00:18:29;18.50;96.30
5164;DHT22;2601;50.224;10.126;2023-10-31T00:20:54;18.50;96.60
5164;DHT22;2601;50.224;10.126;2023-10-31T00:23:21;18.50;96.30
5164;DHT22;2601;50.224;10.126;2023-10-31T00:25:47;18.50;96.30
5164;DHT22;2601;50.224;10.126;2023-10-31T00:28:13;18.50;96.30
5164;DHT22;2601;50.224;10.126;2023-10-31T00:30:38;18.50;96.30
5164;DHT22;2601;50.224;10.126;2023-10-31T00:33:04;18.50;96.30
5164;DHT22;2601;50.224;10.126;2023-10-31T00:35:29;18.40;96.30
5164;DHT22;2601;50.224;10.126;2023-10-31T00:37:56;18.40;96.30
5164;DHT22;2601;50.224;10.126;2023-10-31T00:40:21;18.40;96.30
5164;DHT22;2601;50.224;10.126;2023-10-31T00:42:47;18.40;96.30
5164;DHT22;2601;50.224;10.126;2023-10-31T00:45:13;18.40;96.30
5164;DHT22;2601;50.224;10.126;2023-10-31T00:47:38;18.40;96.30
5164;DHT22;2601;50.224;10.126;2023-10-31T00:50:04;18.40;96.30
5164;DHT22;2601;50.224;10.126;2023-10-31T00:52:30;18.40;96.30
5164;DHT22;2601;50.224;10.126;2023-10-31T00:54:55;18.40;96.30
5164;DHT22;2601;50.224;10.126;2023-10-31T00:57:21;18.40;96.20
5164;DHT22;2601;50.224;10.126;2023-10-31T00:59:47;18.40;96.20
5164;DHT22;2601;50.224;10.126;2023-10-31T01:02:13;18.50;96.30
5164;DHT22;2601;50.224;10.126;2023-10-31T01:04:38;18.40;96.30
5164;DHT22;2601;50.224;10.126;2023-10-31T01:07:04;18.40;96.20
5164;DHT22;2601;50.224;10.126;2023-10-31T01:09:30;18.40;96.20
5164;DHT22;2601;50.224;10.126;2023-10-31T01:11:56;18.50;96.20
5164;DHT22;2601;50.224;10.126;2023-10-31T01:14:21;18.50;96.20
5164;DHT22;2601;50.224;10.126;2023-10-31T01:16:47;18.50;96.20
5164;DHT22;2601;50.224;10.126;2023-10-31T01:19:12;18.50;96.20
5164;DHT22;2601;50.224;10.126;2023-10-31T01:21:38;18.30;96.10
5164;DHT22;2601;50.224;10.126;2023-10-31T01:24:04;18.50;96.10
5164;DHT22;2601;50.224;10.126;2023-10-31T01:26:29;18.50;96.20
5164;DHT22;2601;50.224;10.126;2023-10-31T01:28:55;18.40;96.10
5164;DHT22;2601;50.224;10.126;2023-10-31T01:31:21;18.50;96.10
5164;DHT22;2601;50.224;10.126;2023-10-31T01:33:47;18.50;96.10
5164;DHT22;2601;50.224;10.126;2023-10-31T01:36:12;18.50;96.10
5164;DHT22;2601;50.224;10.126;2023-10-31T01:38:40;18.40;96.00
5164;DHT22;2601;50.224;10.126;2023-10-31T01:41:05;18.40;96.00
5164;DHT22;2601;50.224;10.126;2023-10-31T01:43:38;18.40;96.00
5164;DHT22;2601;50.224;10.126;2023-10-31T01:46:04;18.50;96.00
5164;DHT22;2601;50.224;10.126;2023-10-31T01:48:32;18.40;96.00
5164;DHT22;2601;50.224;10.126;2023-10-31T01:50:59;18.40;95.90
5164;DHT22;2601;50.224;10.126;2023-10-31T01:53:26;18.50;95.90
5164;DHT22;2601;50.224;10.126;2023-10-31T01:55:54;18.50;95.80
5164;DHT22;2601;50.224;10.126;2023-10-31T01:58:25;18.50;96.10
5164;DHT22;2601;50.224;10.126;2023-10-31T02:00:54;18.50;95.80
5164;DHT22;2601;50.224;10.126;2023-10-31T02:03:20;18.50;95.70
5164;DHT22;2601;50.224;10.126;2023-10-31T02:05:46;18.50;95.70
5164;DHT22;2601;50.224;10.126;2023-10-31T02:08:12;18.50;95.70
5164;DHT22;2601;50.224;10.126;2023-10-31T02:10:37;18.50;95.70
5164;DHT22;2601;50.224;10.126;2023-10-31T02:13:16;18.50;95.60
5164;DHT22;2601;50.224;10.126;2023-10-31T02:15:42;18.50;95.60
5164;DHT22;2601;50.224;10.126;2023-10-31T02:18:08;18.50;95.50
5164;DHT22;2601;50.224;10.126;2023-10-31T02:20:34;18.50;95.50
5164;DHT22;2601;50.224;10.126;2023-10-31T02:23:00;18.50;95.50
5164;DHT22;2601;50.224;10.126;2023-10-31T02:25:26;18.50;95.40
5164;DHT22;2601;50.224;10.126;2023-10-31T02:27:51;18.50;95.40
5164;DHT22;2601;50.224;10.126;2023-10-31T02:30:17;18.60;95.40
5164;DHT22;2601;50.224;10.126;2023-10-31T02:32:43;18.50;95.30
5164;DHT22;2601;50.224;10.126;2023-10-31T02:35:09;18.60;95.30
5164;DHT22;2601;50.224;10.126;2023-10-31T02:37:35;18.60;95.30
5164;DHT22;2601;50.224;10.126;2023-10-31T02:40:01;18.60;95.30
5164;DHT22;2601;50.224;10.126;2023-10-31T02:42:27;18.60;95.20
5164;DHT22;2601;50.224;10.126;2023-10-31T02:44:53;18.50;95.20
5164;DHT22;2601;50.224;10.126;2023-10-31T02:47:18;18.60;95.20
5164;DHT22;2601;50.224;10.126;2023-10-31T02:49:44;18.60;95.10
5164;DHT22;2601;50.224;10.126;2023-10-31T02:52:10;18.60;95.10
5164;DHT22;2601;50.224;10.126;2023-10-31T02:54:35;18.60;94.90
5164;DHT22;2601;50.224;10.126;2023-10-31T02:57:01;18.60;95.00
5164;DHT22;2601;50.224;10.126;2023-10-31T02:59:27;18.60;94.90
5164;DHT22;2601;50.224;10.126;2023-10-31T03:01:53;18.60;95.00
5164;DHT22;2601;50.224;10.126;2023-10-31T03:04:19;18.60;94.90
5164;DHT22;2601;50.224;10.126;2023-10-31T03:06:44;18.60;94.90
5164;DHT22;2601;50.224;10.126;2023-10-31T03:09:10;18.60;94.80
5164;DHT22;2601;50.224;10.126;2023-10-31T03:11:36;18.60;94.90
5164;DHT22;2601;50.224;10.126;2023-10-31T03:14:01;18.60;94.90
5164;DHT22;2601;50.224;10.126;2023-10-31T03:16:27;18.60;94.90
5164;DHT22;2601;50.224;10.126;2023-10-31T03:18:52;18.60;94.90
5164;DHT22;2601;50.224;10.126;2023-10-31T03:21:18;18.60;94.90
5164;DHT22;2601;50.224;10.126;2023-10-31T03:23:48;18.60;94.90
5164;DHT22;2601;50.224;10.126;2023-10-31T03:26:18;18.60;94.90
5164;DHT22;2601;50.224;10.126;2023-10-31T03:28:44;18.50;95.00
5164;DHT22;2601;50.224;10.126;2023-10-31T03:31:10;18.50;94.90
5164;DHT22;2601;50.224;10.126;2023-10-31T03:33:36;18.50;94.80
5164;DHT22;2601;50.224;10.126;2023-10-31T03:36:02;18.50;94.80
5164;DHT22;2601;50.224;10.126;2023-10-31T03:38:28;18.50;94.80
5164;DHT22;2601;50.224;10.126;2023-10-31T03:40:53;18.50;94.80
5164;DHT22;2601;50.224;10.126;2023-10-31T03:43:19;18.50;94.80
5164;DHT22;2601;50.224;10.126;2023-10-31T03:45:48;18.50;94.70
5164;DHT22;2601;50.224;10.126;2023-10-31T03:48:15;18.50;94.80
5164;DHT22;2601;50.224;10.126;2023-10-31T03:50:41;18.50;94.70
5164;DHT22;2601;50.224;10.126;2023-10-31T03:53:07;18.50;94.70
5164;DHT22;2601;50.224;10.126;2023-10-31T03:55:32;18.50;94.80
5164;DHT22;2601;50.224;10.126;2023-10-31T03:57:58;18.50;94.80
5164;DHT22;2601;50.224;10.126;2023-10-31T04:00:23;18.50;94.60
5164;DHT22;2601;50.224;10.126;2023-10-31T04:02:49;19.40;95.10
5164;DHT22;2601;50.224;10.126;2023-10-31T04:05:15;18.50;94.70
5164;DHT22;2601;50.224;10.126;2023-10-31T04:07:40;18.50;94.50
5164;DHT22;2601;50.224;10.126;2023-10-31T04:10:06;18.50;94.50
5164;DHT22;2601;50.224;10.126;2023-10-31T04:12:33;18.50;94.40
5164;DHT22;2601;50.224;10.126;2023-10-31T04:14:58;18.50;94.40
5164;DHT22;2601;50.224;10.126;2023-10-31T04:17:24;18.50;94.30
5164;DHT22;2601;50.224;10.126;2023-10-31T04:19:50;18.50;94.30
5164;DHT22;2601;50.224;10.126;2023-10-31T04:22:16;18.60;94.20
5164;DHT22;2601;50.224;10.126;2023-10-31T04:24:42;18.60;94.30
5164;DHT22;2601;50.224;10.126;2023-10-31T04:27:08;18.50;94.40
5164;DHT22;2601;50.224;10.126;2023-10-31T04:29:34;18.50;94.40
5164;DHT22;2601;50.224;10.126;2023-10-31T04:31:59;18.50;94.40
5164;DHT22;2601;50.224;10.126;2023-10-31T04:34:25;18.50;94.40
5164;DHT22;2601;50.224;10.126;2023-10-31T04:36:50;18.50;94.40
5164;DHT22;2601;50.224;10.126;2023-10-31T04:39:16;18.50;94.40
5164;DHT22;2601;50.224;10.126;2023-10-31T04:41:42;18.50;94.40
5164;DHT22;2601;50.224;10.126;2023-10-31T04:44:07;18.50;94.30
5164;DHT22;2601;50.224;10.126;2023-10-31T04:46:33;18.50;94.40
5164;DHT22;2601;50.224;10.126;2023-10-31T04:48:59;18.50;94.30
5164;DHT22;2601;50.224;10.126;2023-10-31T04:51:24;18.50;94.20
5164;DHT22;2601;50.224;10.126;2023-10-31T04:53:50;18.50;94.30
5164;DHT22;2601;50.224;10.126;2023-10-31T04:56:16;18.50;94.30
5164;DHT22;2601;50.224;10.126;2023-10-31T04:58:42;18.50;94.30
5164;DHT22;2601;50.224;10.126;2023-10-31T05:01:12;18.50;94.30
5164;DHT22;2601;50.224;10.126;2023-10-31T05:03:38;18.40;94.30
5164;DHT22;2601;50.224;10.126;2023-10-31T05:06:04;18.50;94.40
5164;DHT22;2601;50.224;10.126;2023-10-31T05:08:31;18.40;94.30
5164;DHT22;2601;50.224;10.126;2023-10-31T05:10:57;18.40;94.30
5164;DHT22;2601;50.224;10.126;2023-10-31T05:13:23;18.50;94.20
5164;DHT22;2601;50.224;10.126;2023-10-31T05:15:49;18.50;94.30
5164;DHT22;2601;50.224;10.126;2023-10-31T05:18:15;18.50;94.60
5164;DHT22;2601;50.224;10.126;2023-10-31T05:20:41;18.50;94.30
5164;DHT22;2601;50.224;10.126;2023-10-31T05:23:07;18.50;94.50
5164;DHT22;2601;50.224;10.126;2023-10-31T05:25:32;18.50;94.20
5164;DHT22;2601;50.224;10.126;2023-10-31T05:27:58;18.50;94.30
5164;DHT22;2601;50.224;10.126;2023-10-31T05:30:24;18.50;94.30
5164;DHT22;2601;50.224;10.126;2023-10-31T05:32:51;18.50;94.30
5164;DHT22;2601;50.224;10.126;2023-10-31T05:35:16;18.50;94.30
5164;DHT22;2601;50.224;10.126;2023-10-31T05:37:42;18.50;94.40
5164;DHT22;2601;50.224;10.126;2023-10-31T05:40:08;18.50;94.30
5164;DHT22;2601;50.224;10.126;2023-10-31T05:42:34;18.50;94.40
5164;DHT22;2601;50.224;10.126;2023-10-31T05:44:59;18.40;94.40
5164;DHT22;2601;50.224;10.126;2023-10-31T05:47:25;18.40;94.30
5164;DHT22;2601;50.224;10.126;2023-10-31T05:49:51;18.50;94.30
5164;DHT22;2601;50.224;10.126;2023-10-31T05:52:17;18.40;94.30
5164;DHT22;2601;50.224;10.126;2023-10-31T05:54:42;18.50;94.30
5164;DHT22;2601;50.224;10.126;2023-10-31T05:57:08;18.50;94.60
5164;DHT22;2601;50.224;10.126;2023-10-31T05:59:33;18.50;94.30
5164;DHT22;2601;50.224;10.126;2023-10-31T06:01:59;18.50;94.30
5164;DHT22;2601;50.224;10.126;2023-10-31T06:04:24;18.50;94.30
5164;DHT22;2601;50.224;10.126;2023-10-31T06:06:50;18.50;94.30
5164;DHT22;2601;50.224;10.126;2023-10-31T06:09:16;18.50;94.30
5164;DHT22;2601;50.224;10.126;2023-10-31T06:11:42;18.50;94.30
5164;DHT22;2601;50.224;10.126;2023-10-31T06:14:08;18.50;94.40
5164;DHT22;2601;50.224;10.126;2023-10-31T06:16:40;18.40;94.30
5164;DHT22;2601;50.224;10.126;2023-10-31T06:19:06;18.40;94.40
5164;DHT22;2601;50.224;10.126;2023-10-31T06:21:32;18.40;94.40
5164;DHT22;2601;50.224;10.126;2023-10-31T06:23:58;18.40;94.40
5164;DHT22;2601;50.224;10.126;2023-10-31T06:26:23;18.40;94.30
5164;DHT22;2601;50.224;10.126;2023-10-31T06:28:49;18.40;94.30
5164;DHT22;2601;50.224;10.126;2023-10-31T06:31:14;18.40;94.40
5164;DHT22;2601;50.224;10.126;2023-10-31T06:33:40;18.40;94.20
5164;DHT22;2601;50.224;10.126;2023-10-31T06:36:07;18.50;94.30
5164;DHT22;2601;50.224;10.126;2023-10-31T06:38:33;18.40;94.60
5164;DHT22;2601;50.224;10.126;2023-10-31T06:40:58;18.40;94.30
5164;DHT22;2601;50.224;10.126;2023-10-31T06:43:24;18.40;94.40
5164;DHT22;2601;50.224;10.126;2023-10-31T06:45:50;18.40;94.30
5164;DHT22;2601;50.224;10.126;2023-10-31T06:48:15;18.40;94.30
5164;DHT22;2601;50.224;10.126;2023-10-31T06:50:41;18.50;94.30
5164;DHT22;2601;50.224;10.126;2023-10-31T06:53:07;18.50;94.20
5164;DHT22;2601;50.224;10.126;2023-10-31T06:55:32;18.50;94.20
5164;DHT22;2601;50.224;10.126;2023-10-31T06:57:58;18.50;94.20
5164;DHT22;2601;50.224;10.126;2023-10-31T07:00:23;18.40;94.20
5164;DHT22;2601;50.224;10.126;2023-10-31T07:02:49;18.40;94.20
5164;DHT22;2601;50.224;10.126;2023-10-31T07:05:15;18.50;94.20
5164;DHT22;2601;50.224;10.126;2023-10-31T07:07:41;18.40;94.20
5164;DHT22;2601;50.224;10.126;2023-10-31T07:10:08;18.40;94.10
5164;DHT22;2601;50.224;10.126;2023-10-31T07:12:34;18.40;94.10
5164;DHT22;2601;50.224;10.126;2023-10-31T07:14:59;18.40;94.20
5164;DHT22;2601;50.224;10.126;2023-10-31T07:17:25;18.40;94.10
5164;DHT22;2601;50.224;10.126;2023-10-31T07:19:51;18.40;94.10
5164;DHT22;2601;50.224;10.126;2023-10-31T07:22:17;18.40;94.10
5164;DHT22;2601;50.224;10.126;2023-10-31T07:24:43;18.50;94.00
5164;DHT22;2601;50.224;10.126;2023-10-31T07:27:09;18.50;94.10
5164;DHT22;2601;50.224;10.126;2023-10-31T07:29:35;18.50;93.90
5164;DHT22;2601;50.224;10.126;2023-10-31T07:32:00;18.50;93.90
5164;DHT22;2601;50.224;10.126;2023-10-31T07:34:28;18.50;93.90
5164;DHT22;2601;50.224;10.126;2023-10-31T07:36:54;18.50;93.90
5164;DHT22;2601;50.224;10.126;2023-10-31T07:39:20;18.50;93.80
5164;DHT22;2601;50.224;10.126;2023-10-31T07:41:45;18.50;93.90
5164;DHT22;2601;50.224;10.126;2023-10-31T07:44:11;18.50;93.90
5164;DHT22;2601;50.224;10.126;2023-10-31T07:46:37;18.50;93.90
5164;DHT22;2601;50.224;10.126;2023-10-31T07:49:03;18.50;93.90
5164;DHT22;2601;50.224;10.126;2023-10-31T07:51:29;18.50;93.90
5164;DHT22;2601;50.224;10.126;2023-10-31T07:53:54;18.50;93.80
5164;DHT22;2601;50.224;10.126;2023-10-31T07:56:20;18.50;93.90
5164;DHT22;2601;50.224;10.126;2023-10-31T07:58:49;18.50;93.70
5164;DHT22;2601;50.224;10.126;2023-10-31T08:01:19;18.50;93.60
5164;DHT22;2601;50.224;10.126;2023-10-31T08:03:46;18.50;93.70
5164;DHT22;2601;50.224;10.126;2023-10-31T08:06:12;18.50;93.70
5164;DHT22;2601;50.224;10.126;2023-10-31T08:08:38;18.50;93.80
5164;DHT22;2601;50.224;10.126;2023-10-31T08:11:07;18.50;93.70
5164;DHT22;2601;50.224;10.126;2023-10-31T08:13:32;18.50;93.70
5164;DHT22;2601;50.224;10.126;2023-10-31T08:15:58;18.50;93.60
5164;DHT22;2601;50.224;10.126;2023-10-31T08:18:24;18.50;93.60
5164;DHT22;2601;50.224;10.126;2023-10-31T08:20:49;18.50;93.60
5164;DHT22;2601;50.224;10.126;2023-10-31T08:23:19;18.50;94.00
5164;DHT22;2601;50.224;10.126;2023-10-31T08:25:44;18.50;93.70
5164;DHT22;2601;50.224;10.126;2023-10-31T08:28:11;18.50;93.60
5164;DHT22;2601;50.224;10.126;2023-10-31T08:30:37;18.50;93.70
5164;DHT22;2601;50.224;10.126;2023-10-31T08:33:03;18.50;93.60
5164;DHT22;2601;50.224;10.126;2023-10-31T08:35:29;18.50;93.50
5164;DHT22;2601;50.224;10.126;2023-10-31T08:37:55;18.50;93.50
5164;DHT22;2601;50.224;10.126;2023-10-31T08:40:20;18.50;93.50
5164;DHT22;2601;50.224;10.126;2023-10-31T08:42:46;18.50;93.60
5164;DHT22;2601;50.224;10.126;2023-10-31T08:45:12;18.50;93.50
5164;DHT22;2601;50.224;10.126;2023-10-31T08:47:37;18.50;93.50
5164;DHT22;2601;50.224;10.126;2023-10-31T08:50:03;18.50;93.60
5164;DHT22;2601;50.224;10.126;2023-10-31T08:52:29;18.50;93.60
5164;DHT22;2601;50.224;10.126;2023-10-31T08:54:55;18.50;93.60
5164;DHT22;2601;50.224;10.126;2023-10-31T08:57:21;18.50;93.50
5164;DHT22;2601;50.224;10.126;2023-10-31T08:59:47;18.50;93.50
5164;DHT22;2601;50.224;10.126;2023-10-31T09:02:12;18.50;93.50
5164;DHT22;2601;50.224;10.126;2023-10-31T09:04:38;18.50;93.40
5164;DHT22;2601;50.224;10.126;2023-10-31T09:07:04;18.50;93.40
5164;DHT22;2601;50.224;10.126;2023-10-31T09:09:29;18.50;93.60
5164;DHT22;2601;50.224;10.126;2023-10-31T09:11:55;18.60;93.60
5164;DHT22;2601;50.224;10.126;2023-10-31T09:14:21;18.50;93.50
5164;DHT22;2601;50.224;10.126;2023-10-31T09:16:46;18.50;93.40
5164;DHT22;2601;50.224;10.126;2023-10-31T09:19:12;18.50;93.40
5164;DHT22;2601;50.224;10.126;2023-10-31T09:21:38;18.50;93.40
5164;DHT22;2601;50.224;10.126;2023-10-31T09:24:03;18.50;93.50
5164;DHT22;2601;50.224;10.126;2023-10-31T09:26:29;18.40;93.30
5164;DHT22;2601;50.224;10.126;2023-10-31T09:28:55;18.40;93.40
5164;DHT22;2601;50.224;10.126;2023-10-31T09:31:22;18.40;93.40
5164;DHT22;2601;50.224;10.126;2023-10-31T09:33:47;18.40;93.40
5164;DHT22;2601;50.224;10.126;2023-10-31T09:36:13;18.40;93.40
5164;DHT22;2601;50.224;10.126;2023-10-31T09:38:40;18.40;93.40
5164;DHT22;2601;50.224;10.126;2023-10-31T09:41:06;18.40;93.30
5164;DHT22;2601;50.224;10.126;2023-10-31T09:43:32;18.40;93.30
5164;DHT22;2601;50.224;10.126;2023-10-31T09:45:58;18.40;93.40
5164;DHT22;2601;50.224;10.126;2023-10-31T09:48:26;18.40;93.20
5164;DHT22;2601;50.224;10.126;2023-10-31T09:50:51;18.40;93.40
5164;DHT22;2601;50.224;10.126;2023-10-31T09:53:19;18.40;93.30
5164;DHT22;2601;50.224;10.126;2023-10-31T09:55:46;18.40;93.20
5164;DHT22;2601;50.224;10.126;2023-10-31T09:58:12;18.40;93.10
5164;DHT22;2601;50.224;10.126;2023-10-31T10:00:37;18.50;93.20
5164;DHT22;2601;50.224;10.126;2023-10-31T10:03:06;18.50;93.20
5164;DHT22;2601;50.224;10.126;2023-10-31T10:05:35;18.50;93.00
5164;DHT22;2601;50.224;10.126;2023-10-31T10:08:01;18.50;92.90
5164;DHT22;2601;50.224;10.126;2023-10-31T10:10:27;18.50;92.80
5164;DHT22;2601;50.224;10.126;2023-10-31T10:12:55;18.50;92.90
5164;DHT22;2601;50.224;10.126;2023-10-31T10:15:21;18.50;93.00
5164;DHT22;2601;50.224;10.126;2023-10-31T10:17:51;18.50;93.10
5164;DHT22;2601;50.224;10.126;2023-10-31T10:20:17;18.50;93.10
5164;DHT22;2601;50.224;10.126;2023-10-31T10:22:44;18.50;93.00
5164;DHT22;2601;50.224;10.126;2023-10-31T10:25:11;18.50;93.10
5164;DHT22;2601;50.224;10.126;2023-10-31T10:27:39;18.50;93.10
5164;DHT22;2601;50.224;10.126;2023-10-31T10:30:07;18.50;93.10
5164;DHT22;2601;50.224;10.126;2023-10-31T10:32:34;18.50;93.10
5164;DHT22;2601;50.224;10.126;2023-10-31T10:34:59;18.50;93.20
5164;DHT22;2601;50.224;10.126;2023-10-31T10:37:27;18.50;93.00
5164;DHT22;2601;50.224;10.126;2023-10-31T10:39:53;18.50;93.10
5164;DHT22;2601;50.224;10.126;2023-10-31T10:44:58;18.50;93.00
5164;DHT22;2601;50.224;10.126;2023-10-31T10:47:27;18.50;93.00
5164;DHT22;2601;50.224;10.126;2023-10-31T10:49:54;18.50;93.10
5164;DHT22;2601;50.224;10.126;2023-10-31T10:52:27;18.50;93.00
5164;DHT22;2601;50.224;10.126;2023-10-31T10:57:38;18.50;93.00
5164;DHT22;2601;50.224;10.126;2023-10-31T11:00:06;18.50;92.80
5164;DHT22;2601;50.224;10.126;2023-10-31T11:02:39;18.50;92.80
5164;DHT22;2601;50.224;10.126;2023-10-31T11:05:06;18.50;92.90
5164;DHT22;2601;50.224;10.126;2023-10-31T11:07:34;18.50;92.70
5164;DHT22;2601;50.224;10.126;2023-10-31T11:10:00;18.60;92.70
5164;DHT22;2601;50.224;10.126;2023-10-31T11:12:29;18.60;92.80
5164;DHT22;2601;50.224;10.126;2023-10-31T11:14:56;18.60;93.00
5164;DHT22;2601;50.224;10.126;2023-10-31T11:17:26;18.60;93.40
5164;DHT22;2601;50.224;10.126;2023-10-31T11:19:54;18.60;93.10
5164;DHT22;2601;50.224;10.126;2023-10-31T11:22:20;18.60;93.10
5164;DHT22;2601;50.224;10.126;2023-10-31T11:24:48;18.60;93.00
5164;DHT22;2601;50.224;10.126;2023-10-31T11:27:14;18.50;92.90
5164;DHT22;2601;50.224;10.126;2023-10-31T11:29:42;18.60;92.70
5164;DHT22;2601;50.224;10.126;2023-10-31T11:32:11;18.60;92.80
5164;DHT22;2601;50.224;10.126;2023-10-31T11:34:38;18.60;92.80
5164;DHT22;2601;50.224;10.126;2023-10-31T11:37:24;18.60;92.70
5164;DHT22;2601;50.224;10.126;2023-10-31T11:42:40;18.50;92.60
5164;DHT22;2601;50.224;10.126;2023-10-31T11:45:08;18.60;92.60
5164;DHT22;2601;50.224;10.126;2023-10-31T11:47:49;18.60;92.70
5164;DHT22;2601;50.224;10.126;2023-10-31T11:50:16;18.60;92.60
5164;DHT22;2601;50.224;10.126;2023-10-31T11:52:42;18.60;92.60
5164;DHT22;2601;50.224;10.126;2023-10-31T11:55:12;18.60;92.40
5164;DHT22;2601;50.224;10.126;2023-10-31T11:57:41;18.60;92.50
5164;DHT22;2601;50.224;10.126;2023-10-31T12:00:07;18.60;92.60
5164;DHT22;2601;50.224;10.126;2023-10-31T12:02:59;18.60;92.60
5164;DHT22;2601;50.224;10.126;2023-10-31T12:05:25;18.50;92.60
5164;DHT22;2601;50.224;10.126;2023-10-31T12:07:51;18.50;92.60
5164;DHT22;2601;50.224;10.126;2023-10-31T12:10:27;18.50;92.70
5164;DHT22;2601;50.224;10.126;2023-10-31T12:12:56;18.50;92.60
5164;DHT22;2601;50.224;10.126;2023-10-31T12:15:22;18.50;92.40
5164;DHT22;2601;50.224;10.126;2023-10-31T12:17:51;18.50;92.50
5164;DHT22;2601;50.224;10.126;2023-10-31T12:20:16;18.50;92.40
5164;DHT22;2601;50.224;10.126;2023-10-31T12:22:43;18.50;92.40
5164;DHT22;2601;50.224;10.126;2023-10-31T12:25:10;18.50;92.30
5164;DHT22;2601;50.224;10.126;2023-10-31T12:27:43;18.50;92.40
5164;DHT22;2601;50.224;10.126;2023-10-31T12:30:10;18.50;92.30
5164;DHT22;2601;50.224;10.126;2023-10-31T12:32:38;18.50;92.60
5164;DHT22;2601;50.224;10.126;2023-10-31T12:35:04;18.50;92.60
5164;DHT22;2601;50.224;10.126;2023-10-31T12:37:30;18.50;92.50
5164;DHT22;2601;50.224;10.126;2023-10-31T12:39:56;18.50;92.40
5164;DHT22;2601;50.224;10.126;2023-10-31T12:42:22;18.60;92.60
5164;DHT22;2601;50.224;10.126;2023-10-31T12:44:54;18.40;92.60
5164;DHT22;2601;50.224;10.126;2023-10-31T12:47:23;18.40;92.60
5164;DHT22;2601;50.224;10.126;2023-10-31T12:50:08;18.40;92.50
5164;DHT22;2601;50.224;10.126;2023-10-31T12:52:54;18.40;92.40
5164;DHT22;2601;50.224;10.126;2023-10-31T12:55:25;18.40;92.40
5164;DHT22;2601;50.224;10.126;2023-10-31T12:57:51;18.40;92.40
5164;DHT22;2601;50.224;10.126;2023-10-31T13:00:18;18.40;92.50
5164;DHT22;2601;50.224;10.126;2023-10-31T13:02:50;18.40;92.40
5164;DHT22;2601;50.224;10.126;2023-10-31T13:05:17;18.40;92.30
5164;DHT22;2601;50.224;10.126;2023-10-31T13:07:49;18.40;92.40
5164;DHT22;2601;50.224;10.126;2023-10-31T13:10:16;18.40;92.40
5164;DHT22;2601;50.224;10.126;2023-10-31T13:12:46;18.40;92.20
5164;DHT22;2601;50.224;10.126;2023-10-31T13:15:22;18.40;92.30
5164;DHT22;2601;50.224;10.126;2023-10-31T13:17:49;18.40;92.40
5164;DHT22;2601;50.224;10.126;2023-10-31T13:20:16;18.40;92.30
5164;DHT22;2601;50.224;10.126;2023-10-31T13:22:43;18.40;92.30
5164;DHT22;2601;50.224;10.126;2023-10-31T13:25:10;18.40;92.40
5164;DHT22;2601;50.224;10.126;2023-10-31T13:27:44;18.40;92.50
5164;DHT22;2601;50.224;10.126;2023-10-31T13:30:13;18.40;92.60
5164;DHT22;2601;50.224;10.126;2023-10-31T13:32:42;18.40;92.50
5164;DHT22;2601;50.224;10.126;2023-10-31T13:35:08;18.40;92.50
5164;DHT22;2601;50.224;10.126;2023-10-31T13:37:35;18.30;92.60
5164;DHT22;2601;50.224;10.126;2023-10-31T13:40:01;18.30;92.50
5164;DHT22;2601;50.224;10.126;2023-10-31T13:42:26;18.40;92.40
5164;DHT22;2601;50.224;10.126;2023-10-31T13:44:53;18.40;92.40
5164;DHT22;2601;50.224;10.126;2023-10-31T13:47:19;18.40;92.30
5164;DHT22;2601;50.224;10.126;2023-10-31T13:49:45;18.40;92.50
5164;DHT22;2601;50.224;10.126;2023-10-31T13:52:11;18.40;92.40
5164;DHT22;2601;50.224;10.126;2023-10-31T13:54:36;18.40;92.50
5164;DHT22;2601;50.224;10.126;2023-10-31T13:57:02;18.40;92.50
5164;DHT22;2601;50.224;10.126;2023-10-31T13:59:29;18.40;92.40
5164;DHT22;2601;50.224;10.126;2023-10-31T14:01:54;18.40;92.40
5164;DHT22;2601;50.224;10.126;2023-10-31T14:04:20;18.40;92.30
5164;DHT22;2601;50.224;10.126;2023-10-31T14:06:46;18.40;92.40
5164;DHT22;2601;50.224;10.126;2023-10-31T14:09:12;18.40;92.40
5164;DHT22;2601;50.224;10.126;2023-10-31T14:11:39;18.40;92.40
5164;DHT22;2601;50.224;10.126;2023-10-31T14:14:05;18.30;92.40
5164;DHT22;2601;50.224;10.126;2023-10-31T14:16:39;18.30;92.40
5164;DHT22;2601;50.224;10.126;2023-10-31T14:19:05;18.40;92.40
5164;DHT22;2601;50.224;10.126;2023-10-31T14:21:35;18.40;92.40
5164;DHT22;2601;50.224;10.126;2023-10-31T14:24:02;18.40;92.40
5164;DHT22;2601;50.224;10.126;2023-10-31T14:26:29;18.40;92.20
5164;DHT22;2601;50.224;10.126;2023-10-31T14:28:55;18.40;92.20
5164;DHT22;2601;50.224;10.126;2023-10-31T14:31:21;18.40;92.30
5164;DHT22;2601;50.224;10.126;2023-10-31T14:33:47;18.40;92.30
5164;DHT22;2601;50.224;10.126;2023-10-31T14:36:12;18.30;92.30
5164;DHT22;2601;50.224;10.126;2023-10-31T14:38:39;18.40;92.30
5164;DHT22;2601;50.224;10.126;2023-10-31T14:41:04;18.40;92.20
5164;DHT22;2601;50.224;10.126;2023-10-31T14:43:30;18.40;92.30
5164;DHT22;2601;50.224;10.126;2023-10-31T14:45:56;18.40;92.40
5164;DHT22;2601;50.224;10.126;2023-10-31T14:48:22;18.40;92.50
5164;DHT22;2601;50.224;10.126;2023-10-31T14:50:48;18.40;92.40
5164;DHT22;2601;50.224;10.126;2023-10-31T14:53:18;18.40;92.40
5164;DHT22;2601;50.224;10.126;2023-10-31T14:55:45;18.40;92.40
5164;DHT22;2601;50.224;10.126;2023-10-31T14:58:11;18.40;92.30
5164;DHT22;2601;50.224;10.126;2023-10-31T15:00:37;18.40;92.40
5164;DHT22;2601;50.224;10.126;2023-10-31T15:03:03;18.30;92.40
5164;DHT22;2601;50.224;10.126;2023-10-31T15:05:29;18.30;92.40
5164;DHT22;2601;50.224;10.126;2023-10-31T15:07:56;18.30;92.40
5164;DHT22;2601;50.224;10.126;2023-10-31T15:10:23;18.30;92.40
5164;DHT22;2601;50.224;10.126;2023-10-31T15:12:49;18.30;92.40
5164;DHT22;2601;50.224;10.126;2023-10-31T15:15:18;18.30;92.60
5164;DHT22;2601;50.224;10.126;2023-10-31T15:17:44;18.30;92.60
5164;DHT22;2601;50.224;10.126;2023-10-31T15:20:10;18.30;92.60
5164;DHT22;2601;50.224;10.126;2023-10-31T15:22:38;18.30;92.70
5164;DHT22;2601;50.224;10.126;2023-10-31T15:25:04;18.30;92.60
5164;DHT22;2601;50.224;10.126;2023-10-31T15:27:30;18.30;92.50
5164;DHT22;2601;50.224;10.126;2023-10-31T15:29:55;18.30;92.50
5164;DHT22;2601;50.224;10.126;2023-10-31T15:32:21;18.30;92.60
5164;DHT22;2601;50.224;10.126;2023-10-31T15:34:46;18.30;92.60
5164;DHT22;2601;50.224;10.126;2023-10-31T15:37:13;18.30;92.70
5164;DHT22;2601;50.224;10.126;2023-10-31T15:39:38;18.30;92.70
5164;DHT22;2601;50.224;10.126;2023-10-31T15:42:08;18.40;93.00
5164;DHT22;2601;50.224;10.126;2023-10-31T15:44:37;18.40;92.90
5164;DHT22;2601;50.224;10.126;2023-10-31T15:47:05;18.40;92.90
5164;DHT22;2601;50.224;10.126;2023-10-31T15:49:31;18.40;92.80